createdAt,value
2019-05-05T00:01:41.671Z,20.97
2019-05-05T00:04:27.207Z,21.53
2019-05-05T00:06:59.169Z,21.43
2019-05-05T00:09:31.309Z,20.90
2019-05-05T00:12:10.576Z,22.30
2019-05-05T00:14:52.063Z,22.07
2019-05-05T00:17:25.161Z,22.37
2019-05-05T00:19:57.162Z,21.10
2019-05-05T00:22:29.120Z,23.03
2019-05-05T00:25:01.073Z,21.57
2019-05-05T00:27:34.700Z,20.23
2019-05-05T00:30:06.901Z,20.13
2019-05-05T00:32:38.894Z,20.50
2019-05-05T00:35:10.941Z,20.20
2019-05-05T00:37:44.946Z,21.67
2019-05-05T00:40:16.772Z,21.03
2019-05-05T00:42:48.760Z,20.00
2019-05-05T00:45:20.719Z,22.10
2019-05-05T00:48:05.784Z,21.20
2019-05-05T00:50:37.730Z,22.23
2019-05-05T00:53:09.744Z,23.87
2019-05-05T00:55:41.681Z,22.43
2019-05-05T00:58:14.347Z,22.13
2019-05-05T01:00:55.405Z,22.27
2019-05-05T01:03:27.575Z,22.90
2019-05-05T01:06:08.745Z,21.47
2019-05-05T01:08:40.718Z,21.07
2019-05-05T01:11:14.586Z,20.50
2019-05-05T01:13:46.504Z,19.50
2019-05-05T01:16:18.437Z,23.30
2019-05-05T01:18:50.420Z,24.27
2019-05-05T01:21:24.284Z,22.30
2019-05-05T01:23:56.218Z,22.23
2019-05-05T01:26:28.163Z,21.90
2019-05-05T01:29:00.155Z,22.67
2019-05-05T01:31:32.118Z,22.27
2019-05-05T01:34:24.350Z,22.03
2019-05-05T01:37:02.245Z,22.37
2019-05-05T01:39:41.568Z,20.03
2019-05-05T01:42:14.421Z,22.20
2019-05-05T01:44:46.425Z,23.27
2019-05-05T01:47:18.351Z,21.07
2019-05-05T01:49:50.327Z,23.13
2019-05-05T01:52:22.270Z,21.77
2019-05-05T01:54:54.777Z,22.67
2019-05-05T01:57:26.996Z,23.27
2019-05-05T01:59:59.269Z,21.40
2019-05-05T02:02:31.214Z,23.53
2019-05-05T02:05:04.596Z,22.97
2019-05-05T02:07:36.723Z,23.60
2019-05-05T02:10:08.801Z,23.10
2019-05-05T02:12:40.752Z,23.50
2019-05-05T02:15:14.920Z,23.47
2019-05-05T02:17:46.856Z,22.00
2019-05-05T02:20:56.607Z,24.63
2019-05-05T02:23:28.544Z,22.23
2019-05-05T02:26:00.583Z,22.43
2019-05-05T02:28:49.330Z,23.73
2019-05-05T02:31:28.481Z,22.87
2019-05-05T02:34:00.411Z,22.80
2019-05-05T02:36:35.284Z,22.43
2019-05-05T02:39:08.837Z,22.17
2019-05-05T02:41:41.711Z,24.30
2019-05-05T02:44:15.522Z,22.10
2019-05-05T02:46:55.122Z,24.63
2019-05-05T02:49:28.013Z,22.73
2019-05-05T02:51:59.969Z,22.87
2019-05-05T02:54:33.859Z,22.97
2019-05-05T02:57:06.923Z,24.80
2019-05-05T02:59:50.876Z,24.50
2019-05-05T03:02:25.042Z,23.73
2019-05-05T03:04:56.984Z,24.10
2019-05-05T03:07:29.422Z,24.27
2019-05-05T03:10:03.565Z,24.33
2019-05-05T03:12:36.144Z,23.10
2019-05-05T03:15:08.181Z,24.10
2019-05-05T03:17:40.140Z,22.13
2019-05-05T03:20:12.098Z,21.63
2019-05-05T03:22:44.056Z,23.23
2019-05-05T03:25:15.982Z,20.67
2019-05-05T03:27:48.805Z,23.33
2019-05-05T03:30:20.777Z,22.07
2019-05-05T03:32:55.746Z,20.00
2019-05-05T03:35:26.583Z,21.00
2019-05-05T03:37:58.542Z,21.37
2019-05-05T03:40:34.297Z,20.37
2019-05-05T03:43:14.415Z,19.73
2019-05-05T03:46:01.153Z,18.63
2019-05-05T03:48:34.620Z,16.50
2019-05-05T03:51:18.131Z,17.13
2019-05-05T03:53:40.732Z,17.77
2019-05-05T03:56:14.050Z,18.10
2019-05-05T03:58:46.147Z,19.77
2019-05-05T04:01:57.177Z,20.23
2019-05-05T04:04:33.562Z,18.33
2019-05-05T04:07:06.152Z,19.07
2019-05-05T04:09:38.201Z,19.07
2019-05-05T04:12:10.717Z,17.07
2019-05-05T04:14:44.099Z,15.90
2019-05-05T04:17:35.753Z,15.23
2019-05-05T04:20:26.209Z,15.57
2019-05-05T04:22:58.438Z,15.63
2019-05-05T04:25:30.388Z,15.77
2019-05-05T04:28:04.336Z,16.50
2019-05-05T04:30:36.238Z,15.87
2019-05-05T04:33:08.254Z,15.43
2019-05-05T04:35:40.209Z,15.90
2019-05-05T04:38:13.906Z,14.73
2019-05-05T04:40:46.023Z,15.07
2019-05-05T04:43:17.977Z,15.30
2019-05-05T04:45:49.949Z,15.07
2019-05-05T04:48:31.037Z,14.97
2019-05-05T04:51:18.876Z,13.37
2019-05-05T04:54:28.822Z,14.97
2019-05-05T04:57:00.791Z,15.00
2019-05-05T04:59:33.982Z,13.40
2019-05-05T05:02:14.537Z,14.63
2019-05-05T05:04:53.518Z,14.23
2019-05-05T05:07:25.585Z,13.57
2019-05-05T05:09:57.549Z,13.97
2019-05-05T05:12:29.475Z,13.60
2019-05-05T05:15:01.588Z,14.47
2019-05-05T05:17:44.329Z,14.37
2019-05-05T05:20:16.638Z,14.10
2019-05-05T05:22:48.562Z,13.87
2019-05-05T05:25:20.535Z,12.63
2019-05-05T05:27:53.632Z,12.80
2019-05-05T05:30:25.747Z,13.43
2019-05-05T05:32:57.755Z,12.73
2019-05-05T05:35:29.714Z,12.17
2019-05-05T05:38:01.709Z,12.60
2019-05-05T05:40:50.846Z,10.40
2019-05-05T05:43:29.925Z,12.13
2019-05-05T05:46:17.080Z,12.20
2019-05-05T05:49:07.231Z,12.70
2019-05-05T05:51:39.194Z,11.17
2019-05-05T05:54:11.150Z,11.67
2019-05-05T05:56:44.663Z,10.97
2019-05-05T05:59:16.696Z,10.37
2019-05-05T06:01:48.685Z,9.20
2019-05-05T06:04:20.649Z,9.03
2019-05-05T06:06:54.386Z,10.27
2019-05-05T06:09:26.481Z,9.80
2019-05-05T06:11:58.459Z,9.37
2019-05-05T06:14:30.439Z,9.37
2019-05-05T06:17:04.104Z,8.97
2019-05-05T06:19:36.250Z,9.23
2019-05-05T06:22:08.249Z,8.90
2019-05-05T06:24:40.220Z,9.23
2019-05-05T06:27:14.115Z,10.10
2019-05-05T06:29:46.064Z,9.77
2019-05-05T06:32:18.082Z,9.23
2019-05-05T06:34:50.053Z,9.30
2019-05-05T06:37:23.811Z,9.27
2019-05-05T06:39:59.204Z,9.40
2019-05-05T06:42:40.485Z,9.47
2019-05-05T06:45:23.891Z,8.83
2019-05-05T06:47:55.985Z,9.03
2019-05-05T06:50:27.941Z,9.13
2019-05-05T06:52:59.914Z,9.73
2019-05-05T06:55:33.617Z,9.03
2019-05-05T06:58:05.887Z,9.17
2019-05-05T07:00:37.831Z,9.13
2019-05-05T07:03:09.831Z,8.00
2019-05-05T07:05:43.723Z,8.47
2019-05-05T07:08:15.709Z,7.77
2019-05-05T07:10:47.668Z,7.37
2019-05-05T07:13:19.661Z,7.97
2019-05-05T07:15:51.625Z,8.10
2019-05-05T07:18:24.691Z,7.23
2019-05-05T07:20:56.750Z,6.77
2019-05-05T07:23:28.731Z,8.70
2019-05-05T07:26:00.691Z,7.70
2019-05-05T07:28:34.262Z,7.17
2019-05-05T07:31:06.395Z,7.10
2019-05-05T07:33:38.442Z,7.30
2019-05-05T07:36:28.587Z,7.23
2019-05-05T07:39:00.606Z,7.80
2019-05-05T07:41:34.065Z,7.60
2019-05-05T07:44:06.198Z,8.50
2019-05-05T07:46:38.154Z,7.67
2019-05-05T07:49:10.150Z,7.63
2019-05-05T07:51:43.932Z,6.73
2019-05-05T07:54:16.019Z,6.93
2019-05-05T07:56:47.980Z,7.50
2019-05-05T07:59:19.963Z,7.80
2019-05-05T08:01:51.925Z,7.37
2019-05-05T08:04:24.339Z,7.50
2019-05-05T08:06:56.359Z,7.30
2019-05-05T08:09:28.365Z,7.83
2019-05-05T08:12:00.407Z,7.10
2019-05-05T08:14:33.723Z,6.73
2019-05-05T08:17:23.540Z,6.50
2019-05-05T08:19:59.921Z,6.87
2019-05-05T08:22:33.879Z,6.30
2019-05-05T08:25:40.342Z,7.10
2019-05-05T08:28:19.296Z,6.63
2019-05-05T08:30:59.075Z,7.27
2019-05-05T08:33:31.048Z,6.57
2019-05-05T08:36:04.607Z,6.30
2019-05-05T08:38:36.753Z,6.10
2019-05-05T08:41:08.761Z,5.10
2019-05-05T08:43:40.770Z,5.60
2019-05-05T08:46:14.379Z,6.20
2019-05-05T08:48:46.564Z,5.40
2019-05-05T08:51:18.533Z,6.00
2019-05-05T08:53:50.531Z,6.00
2019-05-05T08:56:23.802Z,6.50
2019-05-05T08:58:55.790Z,6.17
2019-05-05T09:01:27.751Z,6.10
2019-05-05T09:03:59.732Z,7.57
2019-05-05T09:06:31.739Z,7.83
2019-05-05T09:09:05.308Z,7.00
2019-05-05T09:11:37.347Z,8.03
2019-05-05T09:14:09.370Z,6.00
2019-05-05T09:16:41.370Z,5.73
2019-05-05T09:19:17.165Z,5.80
2019-05-05T09:21:49.180Z,6.10
2019-05-05T09:24:40.778Z,4.80
2019-05-05T09:27:33.887Z,5.60
2019-05-05T09:30:06.641Z,5.80
2019-05-05T09:32:38.686Z,6.03
2019-05-05T09:35:10.648Z,6.33
2019-05-05T09:37:44.306Z,6.00
2019-05-05T09:40:21.128Z,6.90
2019-05-05T09:42:53.616Z,5.80
2019-05-05T09:45:25.853Z,6.60
2019-05-05T09:47:57.883Z,6.43
2019-05-05T09:50:29.879Z,6.07
2019-05-05T09:53:04.033Z,5.93
2019-05-05T09:55:35.830Z,5.17
2019-05-05T09:58:07.842Z,4.77
2019-05-05T10:00:40.975Z,5.93
2019-05-05T10:03:14.471Z,5.27
2019-05-05T10:05:46.820Z,4.80
2019-05-05T10:08:18.873Z,5.33
2019-05-05T10:10:50.856Z,4.60
2019-05-05T10:13:22.883Z,5.30
2019-05-05T10:15:55.020Z,5.30
2019-05-05T10:18:27.088Z,5.00
2019-05-05T10:20:59.061Z,4.97
2019-05-05T10:23:34.207Z,4.93
2019-05-05T10:26:08.622Z,4.33
2019-05-05T10:28:40.642Z,4.57
2019-05-05T10:31:13.829Z,4.13
2019-05-05T10:33:51.242Z,4.47
2019-05-05T10:36:24.481Z,4.70
2019-05-05T10:39:04.298Z,4.13
2019-05-05T10:41:36.076Z,4.30
2019-05-05T10:44:08.101Z,4.27
2019-05-05T10:46:40.069Z,3.90
2019-05-05T10:49:13.735Z,3.53
2019-05-05T10:51:45.893Z,3.90
2019-05-05T10:54:17.953Z,4.40
2019-05-05T10:56:49.928Z,4.53
2019-05-05T10:59:23.827Z,3.97
2019-05-05T11:01:55.856Z,4.50
2019-05-05T11:04:27.911Z,3.63
2019-05-05T11:06:59.929Z,3.73
2019-05-05T11:09:33.729Z,3.87
2019-05-05T11:12:05.919Z,4.60
2019-05-05T11:14:37.956Z,4.10
2019-05-05T11:17:09.960Z,3.70
2019-05-05T11:19:43.984Z,4.40
2019-05-05T11:22:15.887Z,3.70
2019-05-05T11:24:57.353Z,4.10
2019-05-05T11:27:24.004Z,4.10
2019-05-05T11:30:30.733Z,4.27
2019-05-05T11:33:20.911Z,5.00
2019-05-05T11:35:56.911Z,5.73
2019-05-05T11:38:28.928Z,6.47
2019-05-05T11:41:00.964Z,4.40
2019-05-05T11:43:33.788Z,3.70
2019-05-05T11:46:06.018Z,3.30
2019-05-05T11:48:38.009Z,2.80
2019-05-05T11:51:10.006Z,3.37
2019-05-05T11:53:42.075Z,3.33
2019-05-05T11:56:14.554Z,3.50
2019-05-05T11:58:46.692Z,3.10
2019-05-05T12:01:18.724Z,3.80
2019-05-05T12:03:50.696Z,3.90
2019-05-05T12:06:24.673Z,5.13
2019-05-05T12:08:57.601Z,4.07
2019-05-05T12:11:29.582Z,3.53
2019-05-05T12:14:03.867Z,3.70
2019-05-05T12:16:35.994Z,3.77
2019-05-05T12:19:11.153Z,3.80
2019-05-05T12:21:44.221Z,3.77
2019-05-05T12:24:21.920Z,3.77
2019-05-05T12:27:04.882Z,3.07
2019-05-05T12:29:44.440Z,2.83
2019-05-05T12:32:16.493Z,3.37
2019-05-05T12:34:48.496Z,2.60
2019-05-05T12:37:20.576Z,2.80
2019-05-05T12:39:54.479Z,2.97
2019-05-05T12:42:26.499Z,2.90
2019-05-05T12:45:05.111Z,2.90
2019-05-05T12:47:55.827Z,2.70
2019-05-05T12:50:27.810Z,2.53
2019-05-05T12:52:59.871Z,2.63
2019-05-05T12:55:38.976Z,2.70
2019-05-05T12:58:05.754Z,2.97
2019-05-05T13:00:39.760Z,2.87
2019-05-05T13:03:13.512Z,3.00
2019-05-05T13:05:45.557Z,3.03
2019-05-05T13:08:17.645Z,2.90
2019-05-05T13:10:49.622Z,3.27
2019-05-05T13:13:21.664Z,3.20
2019-05-05T13:15:53.751Z,3.00
2019-05-05T13:18:25.801Z,2.87
2019-05-05T13:21:04.813Z,3.20
2019-05-05T13:24:08.429Z,3.00
2019-05-05T13:26:54.268Z,3.23
2019-05-05T13:29:26.324Z,3.23
2019-05-05T13:31:58.415Z,3.40
2019-05-05T13:34:30.480Z,2.73
2019-05-05T13:37:03.605Z,2.87
2019-05-05T13:39:35.723Z,2.73
2019-05-05T13:42:07.688Z,2.70
2019-05-05T13:45:08.604Z,4.87
2019-05-05T13:47:40.720Z,2.37
2019-05-05T13:50:21.004Z,2.60
2019-05-05T13:52:52.983Z,2.30
2019-05-05T13:55:25.037Z,2.97
2019-05-05T13:57:57.068Z,2.93
2019-05-05T14:00:29.091Z,2.93
2019-05-05T14:03:01.105Z,2.77
2019-05-05T14:05:34.406Z,2.67
2019-05-05T14:08:06.556Z,3.00
2019-05-05T14:10:38.661Z,2.80
2019-05-05T14:13:10.704Z,2.30
2019-05-05T14:15:44.078Z,2.20
2019-05-05T14:18:16.163Z,2.20
2019-05-05T14:20:48.362Z,2.57
2019-05-05T14:23:20.800Z,2.43
2019-05-05T14:25:54.438Z,3.20
2019-05-05T14:28:26.623Z,2.80
2019-05-05T14:31:07.924Z,2.73
2019-05-05T14:33:57.382Z,2.50
2019-05-05T14:36:54.923Z,2.70
2019-05-05T14:39:26.937Z,2.00
2019-05-05T14:41:58.977Z,2.80
2019-05-05T14:44:30.967Z,2.53
2019-05-05T14:47:03.047Z,3.00
2019-05-05T14:49:35.030Z,2.93
2019-05-05T14:52:07.097Z,3.13
2019-05-05T14:54:39.106Z,2.90
2019-05-05T14:57:11.165Z,2.40
2019-05-05T14:59:43.169Z,2.63
2019-05-05T15:02:15.241Z,3.07
2019-05-05T15:04:47.230Z,2.47
2019-05-05T15:07:29.212Z,3.50
2019-05-05T15:10:19.442Z,6.17
2019-05-05T15:12:58.494Z,3.83
2019-05-05T15:15:30.513Z,3.17
2019-05-05T15:18:03.976Z,3.23
2019-05-05T15:20:36.645Z,2.43
2019-05-05T15:23:08.780Z,2.53
2019-05-05T15:25:40.783Z,2.90
2019-05-05T15:28:13.861Z,3.23
2019-05-05T15:30:45.914Z,2.67
2019-05-05T15:33:17.944Z,3.27
2019-05-05T15:35:49.929Z,3.27
2019-05-05T15:38:22.014Z,3.27
2019-05-05T15:40:54.698Z,2.70
2019-05-05T15:43:27.008Z,2.50
2019-05-05T15:45:58.970Z,3.30
2019-05-05T15:48:31.057Z,2.80
2019-05-05T15:51:04.171Z,5.13
2019-05-05T15:53:36.354Z,4.87
2019-05-05T15:56:08.426Z,3.33
2019-05-05T15:58:40.476Z,2.80
2019-05-05T16:01:14.231Z,3.13
2019-05-05T16:03:46.464Z,2.97
2019-05-05T16:06:18.506Z,3.00
2019-05-05T16:08:50.588Z,2.83
2019-05-05T16:11:23.386Z,4.00
2019-05-05T16:13:55.608Z,3.20
2019-05-05T16:17:06.540Z,2.30
2019-05-05T16:19:53.781Z,2.77
2019-05-05T16:22:38.418Z,3.50
2019-05-05T16:25:14.030Z,3.43
2019-05-05T16:27:46.423Z,3.23
2019-05-05T16:30:18.718Z,3.13
2019-05-05T16:32:50.712Z,2.97
2019-05-05T16:35:23.725Z,2.80
2019-05-05T16:37:55.849Z,3.00
2019-05-05T16:40:27.911Z,2.77
2019-05-05T16:42:59.953Z,31.97
2019-05-05T16:45:33.699Z,34.63
2019-05-05T16:48:05.928Z,14.40
2019-05-05T16:50:37.982Z,7.27
2019-05-05T16:53:29.575Z,6.50
2019-05-05T16:56:01.799Z,3.17
2019-05-05T16:58:33.850Z,3.00
2019-05-05T17:01:09.730Z,5.43
2019-05-05T17:03:45.435Z,3.50
2019-05-05T17:06:15.796Z,6.20
2019-05-05T17:08:47.822Z,3.40
2019-05-05T17:11:19.909Z,2.87
2019-05-05T17:14:14.533Z,3.63
2019-05-05T17:17:14.296Z,2.83
2019-05-05T17:20:05.005Z,2.60
2019-05-05T17:22:50.454Z,2.80
2019-05-05T17:25:24.495Z,3.23
2019-05-05T17:27:56.503Z,3.23
2019-05-05T17:30:28.882Z,2.60
2019-05-05T17:33:01.111Z,2.10
2019-05-05T17:35:33.691Z,3.80
2019-05-05T17:38:13.719Z,65.37
2019-05-05T17:41:04.063Z,130.00
2019-05-05T17:43:44.692Z,306.80
2019-05-05T17:46:38.886Z,201.17
2019-05-05T17:49:16.366Z,111.90
2019-05-05T17:51:57.460Z,34.33
2019-05-05T17:54:44.582Z,16.97
2019-05-05T17:57:16.783Z,6.50
2019-05-05T17:59:48.875Z,13.57
2019-05-05T18:02:21.043Z,8.00
2019-05-05T18:04:54.142Z,6.13
2019-05-05T18:07:36.063Z,5.03
2019-05-05T18:10:27.800Z,6.13
2019-05-05T18:13:22.460Z,5.43
2019-05-05T18:16:05.736Z,4.57
2019-05-05T18:18:37.918Z,4.00
2019-05-05T18:21:10.072Z,4.03
2019-05-05T18:23:43.903Z,3.43
2019-05-05T18:26:16.093Z,5.53
2019-05-05T18:28:48.343Z,7.03
2019-05-05T18:31:20.380Z,10.63
2019-05-05T18:33:54.304Z,7.37
2019-05-05T18:36:26.577Z,6.60
2019-05-05T18:38:58.700Z,7.90
2019-05-05T18:41:36.646Z,7.97
2019-05-05T18:44:17.196Z,9.20
2019-05-05T18:47:11.713Z,9.33
2019-05-05T18:49:42.823Z,8.20
2019-05-05T18:52:15.012Z,8.30
2019-05-05T18:54:47.049Z,7.50
2019-05-05T18:57:19.150Z,7.07
2019-05-05T18:59:51.269Z,6.27
2019-05-05T19:02:44.254Z,6.43
2019-05-05T19:05:34.723Z,13.67
2019-05-05T19:08:14.309Z,23.00
2019-05-05T19:10:46.514Z,31.53
2019-05-05T19:13:18.541Z,24.23
2019-05-05T19:15:50.635Z,15.87
2019-05-05T19:18:24.464Z,12.20
2019-05-05T19:21:03.619Z,16.20
2019-05-05T19:23:35.771Z,34.00
2019-05-05T19:26:08.017Z,24.00
2019-05-05T19:28:43.964Z,15.83
2019-05-05T19:31:15.484Z,11.50
2019-05-05T19:33:47.555Z,10.60
2019-05-05T19:36:19.564Z,9.77
2019-05-05T19:38:51.602Z,9.37
2019-05-05T19:41:23.863Z,9.40
2019-05-05T19:43:55.925Z,9.13
2019-05-05T19:46:59.925Z,8.83
2019-05-05T19:49:33.735Z,7.40
2019-05-05T19:52:05.969Z,8.60
2019-05-05T19:54:37.986Z,9.93
2019-05-05T19:57:10.087Z,11.37
2019-05-05T19:59:42.109Z,10.53
2019-05-05T20:02:14.215Z,8.57
2019-05-05T20:04:46.269Z,6.80
2019-05-05T20:07:18.313Z,5.93
2019-05-05T20:09:54.394Z,5.07
2019-05-05T20:12:28.035Z,8.27
2019-05-05T20:15:03.944Z,8.90
2019-05-05T20:17:36.695Z,8.83
2019-05-05T20:20:08.995Z,20.00
2019-05-05T20:22:41.017Z,27.00
2019-05-05T20:25:13.978Z,31.40
2019-05-05T20:27:50.250Z,26.83
2019-05-05T20:30:24.563Z,16.17
2019-05-05T20:33:03.884Z,9.87
2019-05-05T20:35:45.308Z,11.90
2019-05-05T20:38:28.168Z,9.83
2019-05-05T20:41:16.770Z,8.90
2019-05-05T20:43:48.886Z,5.77
2019-05-05T20:46:20.871Z,6.13
2019-05-05T20:48:54.484Z,6.17
2019-05-05T20:51:26.793Z,6.10
2019-05-05T20:53:58.808Z,6.67
2019-05-05T20:56:30.779Z,6.17
2019-05-05T20:59:03.192Z,6.60
2019-05-05T21:01:35.190Z,8.43
2019-05-05T21:04:08.469Z,6.93
2019-05-05T21:06:40.463Z,7.07
2019-05-05T21:09:14.222Z,7.63
2019-05-05T21:11:46.381Z,7.57
2019-05-05T21:14:33.656Z,7.57
2019-05-05T21:16:55.262Z,7.63
2019-05-05T21:19:27.267Z,8.03
2019-05-05T21:22:01.156Z,6.40
2019-05-05T21:24:33.520Z,6.53
2019-05-05T21:27:05.705Z,7.47
2019-05-05T21:29:42.101Z,6.33
2019-05-05T21:32:13.764Z,6.53
2019-05-05T21:34:45.506Z,8.33
2019-05-05T21:37:17.549Z,8.27
2019-05-05T21:39:49.600Z,8.53
2019-05-05T21:42:23.986Z,8.50
2019-05-05T21:44:55.482Z,8.97
2019-05-05T21:47:27.484Z,8.03
2019-05-05T21:49:59.482Z,8.23
2019-05-05T21:52:37.691Z,11.33
2019-05-05T21:55:21.470Z,7.77
2019-05-05T21:58:04.371Z,7.07
2019-05-05T22:01:04.442Z,6.60
2019-05-05T22:03:37.173Z,6.93
2019-05-05T22:06:09.161Z,7.70
2019-05-05T22:08:41.155Z,6.83
2019-05-05T22:11:14.706Z,6.80
2019-05-05T22:13:46.791Z,5.83
2019-05-05T22:16:18.746Z,6.13
2019-05-05T22:18:51.094Z,6.00
2019-05-05T22:21:36.213Z,6.40
2019-05-05T22:24:19.536Z,6.50
2019-05-05T22:26:53.912Z,6.17
2019-05-05T22:29:28.159Z,6.20
2019-05-05T22:32:00.159Z,5.53
2019-05-05T22:34:33.527Z,6.27
2019-05-05T22:37:09.087Z,7.00
2019-05-05T22:39:40.881Z,6.23
2019-05-05T22:42:13.969Z,6.17
2019-05-05T22:44:46.701Z,6.47
2019-05-05T22:47:18.696Z,5.67
2019-05-05T22:49:50.652Z,6.40
2019-05-05T22:52:25.617Z,5.87
2019-05-05T22:54:57.606Z,6.40
2019-05-05T22:57:29.594Z,6.37
2019-05-05T23:00:03.642Z,5.97
2019-05-05T23:02:38.299Z,10.43
2019-05-05T23:05:17.101Z,7.87
2019-05-05T23:07:49.069Z,7.87
2019-05-05T23:10:21.020Z,8.33
2019-05-05T23:12:54.528Z,6.93
2019-05-05T23:15:26.460Z,5.53
2019-05-05T23:18:06.963Z,5.13
2019-05-05T23:21:09.386Z,5.40
2019-05-05T23:23:56.285Z,5.10
2019-05-05T23:26:30.047Z,5.87
2019-05-05T23:29:01.988Z,5.70
2019-05-05T23:31:33.948Z,5.30
2019-05-05T23:34:05.968Z,5.30
2019-05-05T23:36:37.944Z,5.57
2019-05-05T23:39:09.879Z,5.27
2019-05-05T23:41:41.857Z,5.63
2019-05-05T23:44:16.830Z,5.40
2019-05-05T23:46:48.799Z,5.70
2019-05-05T23:49:20.747Z,5.20
2019-05-05T23:51:55.506Z,5.10
2019-05-05T23:54:27.491Z,5.37
2019-05-05T23:56:59.545Z,4.80
2019-05-05T23:59:31.490Z,5.97
